createdAt,value
2018-09-29T00:01:48.276Z,1.80
2018-09-29T00:03:50.512Z,1.77
2018-09-29T00:05:52.786Z,1.67
2018-09-29T00:07:55.056Z,1.85
2018-09-29T00:09:57.328Z,1.80
2018-09-29T00:11:59.565Z,2.20
2018-09-29T00:14:01.839Z,1.80
2018-09-29T00:16:04.088Z,1.80
2018-09-29T00:18:06.376Z,2.00
2018-09-29T00:20:08.604Z,1.45
2018-09-29T00:22:10.868Z,1.52
2018-09-29T00:24:13.098Z,2.22
2018-09-29T00:26:15.371Z,1.47
2018-09-29T00:28:17.599Z,1.57
2018-09-29T00:30:19.910Z,2.05
2018-09-29T00:32:22.126Z,1.55
2018-09-29T00:34:24.396Z,1.60
2018-09-29T00:36:26.631Z,1.62
2018-09-29T00:38:28.909Z,2.45
2018-09-29T00:40:31.141Z,2.00
2018-09-29T00:42:33.409Z,1.72
2018-09-29T00:44:35.643Z,1.30
2018-09-29T00:46:37.973Z,1.62
2018-09-29T00:48:40.185Z,1.50
2018-09-29T00:50:42.429Z,1.95
2018-09-29T00:52:44.656Z,1.82
2018-09-29T00:54:46.941Z,1.75
2018-09-29T00:56:49.177Z,1.47
2018-09-29T00:58:51.467Z,1.92
2018-09-29T01:00:53.725Z,1.77
2018-09-29T01:02:55.993Z,1.47
2018-09-29T01:04:58.250Z,1.50
2018-09-29T01:07:00.523Z,1.67
2018-09-29T01:09:02.801Z,2.02
2018-09-29T01:11:05.042Z,1.55
2018-09-29T01:13:07.281Z,1.65
2018-09-29T01:15:09.543Z,1.50
2018-09-29T01:17:11.831Z,1.60
2018-09-29T01:19:14.060Z,1.50
2018-09-29T01:21:16.327Z,1.80
2018-09-29T01:23:18.564Z,2.05
2018-09-29T01:25:20.823Z,1.60
2018-09-29T01:27:23.067Z,1.50
2018-09-29T01:29:25.299Z,1.60
2018-09-29T01:31:27.563Z,1.80
2018-09-29T01:33:29.912Z,2.05
2018-09-29T01:35:32.204Z,1.60
2018-09-29T01:37:34.498Z,1.82
2018-09-29T01:39:36.718Z,1.72
2018-09-29T01:41:39.143Z,1.50
2018-09-29T01:43:41.381Z,1.22
2018-09-29T01:45:43.607Z,1.57
2018-09-29T01:47:45.893Z,1.65
2018-09-29T01:49:48.166Z,1.47
2018-09-29T01:51:50.445Z,1.85
2018-09-29T01:53:52.681Z,1.22
2018-09-29T01:55:54.964Z,1.80
2018-09-29T01:57:57.233Z,1.70
2018-09-29T01:59:59.461Z,1.50
2018-09-29T02:02:01.723Z,1.37
2018-09-29T02:04:03.945Z,1.50
2018-09-29T02:06:06.213Z,1.35
2018-09-29T02:08:08.532Z,1.50
2018-09-29T02:10:10.747Z,1.35
2018-09-29T02:12:13.023Z,1.60
2018-09-29T02:14:15.284Z,1.57
2018-09-29T02:16:17.577Z,1.77
2018-09-29T02:18:19.841Z,1.72
2018-09-29T02:20:22.068Z,1.55
2018-09-29T02:22:24.362Z,1.40
2018-09-29T02:24:26.576Z,1.37
2018-09-29T02:26:28.808Z,1.72
2018-09-29T02:28:31.087Z,1.60
2018-09-29T02:30:33.329Z,1.47
2018-09-29T02:32:35.563Z,1.22
2018-09-29T02:34:37.862Z,1.42
2018-09-29T02:36:40.157Z,1.77
2018-09-29T02:38:42.413Z,1.40
2018-09-29T02:40:44.686Z,1.62
2018-09-29T02:42:46.949Z,1.70
2018-09-29T02:44:49.172Z,1.90
2018-09-29T02:46:51.406Z,1.95
2018-09-29T02:48:53.678Z,1.65
2018-09-29T02:50:55.908Z,2.00
2018-09-29T02:52:58.144Z,1.30
2018-09-29T02:55:00.430Z,1.50
2018-09-29T02:57:02.658Z,1.57
2018-09-29T02:59:04.886Z,1.55
2018-09-29T03:01:07.150Z,1.42
2018-09-29T03:03:09.394Z,1.50
2018-09-29T03:05:11.705Z,1.65
2018-09-29T03:07:13.979Z,1.70
2018-09-29T03:09:16.194Z,1.47
2018-09-29T03:11:18.440Z,1.40
2018-09-29T03:13:20.698Z,1.30
2018-09-29T03:15:22.971Z,1.22
2018-09-29T03:17:25.218Z,1.30
2018-09-29T03:19:27.467Z,1.75
2018-09-29T03:21:29.711Z,1.52
2018-09-29T03:23:31.962Z,1.30
2018-09-29T03:25:34.248Z,1.60
2018-09-29T03:27:36.482Z,1.90
2018-09-29T03:29:38.716Z,1.75
2018-09-29T03:31:41.051Z,1.35
2018-09-29T03:33:43.220Z,1.30
2018-09-29T03:35:45.482Z,1.70
2018-09-29T03:37:47.740Z,1.40
2018-09-29T03:39:49.982Z,1.42
2018-09-29T03:41:52.260Z,1.22
2018-09-29T03:43:54.532Z,1.57
2018-09-29T03:45:56.796Z,1.95
2018-09-29T03:47:59.028Z,1.80
2018-09-29T03:50:01.256Z,1.90
2018-09-29T03:52:03.523Z,1.60
2018-09-29T03:54:05.746Z,1.95
2018-09-29T03:56:07.980Z,1.30
2018-09-29T03:58:10.244Z,2.20
2018-09-29T04:00:12.476Z,1.35
2018-09-29T04:02:14.781Z,1.35
2018-09-29T04:04:17.048Z,1.62
2018-09-29T04:06:19.284Z,1.32
2018-09-29T04:08:21.526Z,1.95
2018-09-29T04:10:23.788Z,1.47
2018-09-29T04:12:26.054Z,1.40
2018-09-29T04:14:28.295Z,1.72
2018-09-29T04:16:30.516Z,1.25
2018-09-29T04:18:32.797Z,1.60
2018-09-29T04:20:35.019Z,1.35
2018-09-29T04:22:37.296Z,1.35
2018-09-29T04:24:39.569Z,1.55
2018-09-29T04:26:41.800Z,1.30
2018-09-29T04:28:44.059Z,1.30
2018-09-29T04:30:46.325Z,1.20
2018-09-29T04:32:48.555Z,1.50
2018-09-29T04:34:50.833Z,1.57
2018-09-29T04:36:53.077Z,1.20
2018-09-29T04:38:55.327Z,1.62
2018-09-29T04:40:57.601Z,1.30
2018-09-29T04:42:59.937Z,1.50
2018-09-29T04:45:02.119Z,1.35
2018-09-29T04:47:04.357Z,1.17
2018-09-29T04:49:06.690Z,1.25
2018-09-29T04:51:09.383Z,1.75
2018-09-29T04:53:11.639Z,1.57
2018-09-29T04:55:13.917Z,1.30
2018-09-29T04:57:16.155Z,1.30
2018-09-29T04:59:18.408Z,1.32
2018-09-29T05:01:20.672Z,1.47
2018-09-29T05:03:22.905Z,1.12
2018-09-29T05:05:25.199Z,1.32
2018-09-29T05:07:27.423Z,1.82
2018-09-29T05:09:29.702Z,1.22
2018-09-29T05:11:31.939Z,1.20
2018-09-29T05:13:34.166Z,1.35
2018-09-29T05:15:36.435Z,1.15
2018-09-29T05:17:38.667Z,1.32
2018-09-29T05:19:40.908Z,1.35
2018-09-29T05:21:43.175Z,1.70
2018-09-29T05:23:45.425Z,1.22
2018-09-29T05:25:47.693Z,1.52
2018-09-29T05:27:49.941Z,1.87
2018-09-29T05:29:52.163Z,1.12
2018-09-29T05:31:54.448Z,1.30
2018-09-29T05:33:56.680Z,1.80
2018-09-29T05:35:58.909Z,1.30
2018-09-29T05:38:01.177Z,1.25
2018-09-29T05:40:03.451Z,1.22
2018-09-29T05:42:05.746Z,1.20
2018-09-29T05:44:07.977Z,1.45
2018-09-29T05:46:10.232Z,1.47
2018-09-29T05:48:12.502Z,1.50
2018-09-29T05:50:15.005Z,1.47
2018-09-29T05:52:17.249Z,1.22
2018-09-29T05:54:19.523Z,1.35
2018-09-29T05:56:21.770Z,1.42
2018-09-29T05:58:24.005Z,1.60
2018-09-29T06:00:26.337Z,1.02
2018-09-29T06:02:28.532Z,1.10
2018-09-29T06:04:30.813Z,1.00
2018-09-29T06:06:33.047Z,1.52
2018-09-29T06:08:35.340Z,1.30
2018-09-29T06:10:37.577Z,1.35
2018-09-29T06:12:39.828Z,1.12
2018-09-29T06:14:42.105Z,1.20
2018-09-29T06:16:44.363Z,1.25
2018-09-29T06:18:46.578Z,1.20
2018-09-29T06:20:48.842Z,1.60
2018-09-29T06:22:51.115Z,1.55
2018-09-29T06:24:53.367Z,1.30
2018-09-29T06:26:55.639Z,1.57
2018-09-29T06:28:57.903Z,1.40
2018-09-29T06:31:00.148Z,1.02
2018-09-29T06:33:02.408Z,1.22
2018-09-29T06:35:04.658Z,1.45
2018-09-29T06:37:06.904Z,1.05
2018-09-29T06:39:09.186Z,1.00
2018-09-29T06:41:11.441Z,1.40
2018-09-29T06:43:13.668Z,1.20
2018-09-29T06:45:15.938Z,1.57
2018-09-29T06:47:18.169Z,1.20
2018-09-29T06:49:20.412Z,1.25
2018-09-29T06:51:22.683Z,1.40
2018-09-29T06:53:25.210Z,1.50
2018-09-29T06:55:27.447Z,1.52
2018-09-29T06:57:29.725Z,1.20
2018-09-29T06:59:31.971Z,0.93
2018-09-29T07:01:34.237Z,1.40
2018-09-29T07:03:36.483Z,1.45
2018-09-29T07:05:38.745Z,1.15
2018-09-29T07:07:40.978Z,1.25
2018-09-29T07:09:43.233Z,1.10
2018-09-29T07:11:45.509Z,1.30
2018-09-29T07:13:47.739Z,1.25
2018-09-29T07:15:50.037Z,1.45
2018-09-29T07:17:52.303Z,1.32
2018-09-29T07:19:54.546Z,1.02
2018-09-29T07:21:56.847Z,1.10
2018-09-29T07:23:59.599Z,1.10
2018-09-29T07:26:01.856Z,1.17
2018-09-29T07:28:04.113Z,1.40
2018-09-29T07:30:06.407Z,1.20
2018-09-29T07:32:08.645Z,1.20
2018-09-29T07:34:10.883Z,1.00
2018-09-29T07:36:13.129Z,1.37
2018-09-29T07:38:15.377Z,1.35
2018-09-29T07:40:17.635Z,1.07
2018-09-29T07:42:19.921Z,0.72
2018-09-29T07:44:22.528Z,1.07
2018-09-29T07:46:24.794Z,1.72
2018-09-29T07:48:27.061Z,1.65
2018-09-29T07:50:29.281Z,33.35
2018-09-29T07:52:31.567Z,50.23
2018-09-29T07:54:33.848Z,167.57
2018-09-29T07:56:36.105Z,139.72
2018-09-29T07:58:38.407Z,93.52
2018-09-29T08:00:40.660Z,81.90
2018-09-29T08:02:42.948Z,62.25
2018-09-29T08:04:45.222Z,69.00
2018-09-29T08:06:47.496Z,72.85
2018-09-29T08:08:49.752Z,121.60
2018-09-29T08:10:52.031Z,120.02
2018-09-29T08:12:54.267Z,112.22
2018-09-29T08:14:56.600Z,104.58
2018-09-29T08:16:59.003Z,109.97
2018-09-29T08:19:01.294Z,114.77
2018-09-29T08:21:03.600Z,123.22
2018-09-29T08:23:05.878Z,136.75
2018-09-29T08:25:08.144Z,130.70
2018-09-29T08:27:10.418Z,127.47
2018-09-29T08:29:12.673Z,121.60
2018-09-29T08:31:14.938Z,118.57
2018-09-29T08:33:17.216Z,128.57
2018-09-29T08:35:19.475Z,143.55
2018-09-29T08:37:21.762Z,167.25
2018-09-29T08:39:24.007Z,186.57
2018-09-29T08:41:26.302Z,183.57
2018-09-29T08:43:28.550Z,167.10
2018-09-29T08:45:30.830Z,140.85
2018-09-29T08:47:33.123Z,146.82
2018-09-29T08:49:35.366Z,157.50
2018-09-29T08:51:37.658Z,147.95
2018-09-29T08:53:39.987Z,108.25
2018-09-29T08:55:42.194Z,91.97
2018-09-29T08:57:44.426Z,123.97
2018-09-29T08:59:46.700Z,121.07
2018-09-29T09:01:48.949Z,114.47
2018-09-29T09:03:51.285Z,92.02
2018-09-29T09:05:53.498Z,84.28
2018-09-29T09:07:55.734Z,80.70
2018-09-29T09:09:58.015Z,93.60
2018-09-29T09:12:00.264Z,83.87
2018-09-29T09:14:02.500Z,75.90
2018-09-29T09:16:04.780Z,69.05
2018-09-29T09:18:07.071Z,79.22
2018-09-29T09:20:09.321Z,71.33
2018-09-29T09:22:11.608Z,51.42
2018-09-29T09:24:13.961Z,47.60
2018-09-29T09:26:16.120Z,45.88
2018-09-29T09:28:18.355Z,41.08
2018-09-29T09:30:20.672Z,40.23
2018-09-29T09:32:22.878Z,31.75
2018-09-29T09:34:25.144Z,30.35
2018-09-29T09:36:27.420Z,33.35
2018-09-29T09:38:29.655Z,42.80
2018-09-29T09:40:31.961Z,36.70
2018-09-29T09:42:34.199Z,33.85
2018-09-29T09:44:36.489Z,37.08
2018-09-29T09:46:38.753Z,24.67
2018-09-29T09:48:40.996Z,23.85
2018-09-29T09:50:43.441Z,27.07
2018-09-29T09:52:45.683Z,39.10
2018-09-29T09:54:47.941Z,38.90
2018-09-29T09:56:50.219Z,51.05
2018-09-29T09:58:52.511Z,15.83
2018-09-29T10:00:54.793Z,13.05
2018-09-29T10:02:57.100Z,7.05
2018-09-29T10:04:59.344Z,6.10
2018-09-29T10:07:01.581Z,9.80
2018-09-29T10:09:03.858Z,40.28
2018-09-29T10:11:06.100Z,125.58
2018-09-29T10:13:08.404Z,143.02
2018-09-29T10:15:10.699Z,56.95
2018-09-29T10:17:12.988Z,14.45
2018-09-29T10:19:15.289Z,376.95
2018-09-29T10:21:17.528Z,106.58
2018-09-29T10:23:19.836Z,36.68
2018-09-29T10:25:22.087Z,14.50
2018-09-29T10:27:24.371Z,6.72
2018-09-29T10:29:26.617Z,3.90
2018-09-29T10:31:28.856Z,5.83
2018-09-29T10:33:31.128Z,3.50
2018-09-29T10:35:33.385Z,2.33
2018-09-29T10:37:35.612Z,2.17
2018-09-29T10:39:37.914Z,6.58
2018-09-29T10:41:40.166Z,58.70
2018-09-29T10:43:42.402Z,159.10
2018-09-29T10:45:44.681Z,19.45
2018-09-29T10:47:46.984Z,7.67
2018-09-29T10:49:49.230Z,15.83
2018-09-29T10:51:51.467Z,45.40
2018-09-29T10:53:53.756Z,41.33
2018-09-29T10:55:56.049Z,22.20
2018-09-29T10:57:58.286Z,12.82
2018-09-29T11:00:00.563Z,7.85
2018-09-29T11:02:02.837Z,6.30
2018-09-29T11:04:05.065Z,2.58
2018-09-29T11:06:07.315Z,3.83
2018-09-29T11:08:09.612Z,6.12
2018-09-29T11:10:11.843Z,4.50
2018-09-29T11:12:14.126Z,5.22
2018-09-29T11:14:16.417Z,3.37
2018-09-29T11:16:18.647Z,6.42
2018-09-29T11:18:20.885Z,4.30
2018-09-29T11:20:23.145Z,1.82
2018-09-29T11:22:25.382Z,2.33
2018-09-29T11:24:27.629Z,7.58
2018-09-29T11:26:29.915Z,1.77
2018-09-29T11:28:32.555Z,2.08
2018-09-29T11:30:34.796Z,2.58
2018-09-29T11:32:37.487Z,2.67
2018-09-29T11:34:39.724Z,1.15
2018-09-29T11:36:42.010Z,1.37
2018-09-29T11:38:44.260Z,1.30
2018-09-29T11:40:46.539Z,3.10
2018-09-29T11:42:48.773Z,1.90
2018-09-29T11:44:51.056Z,1.67
2018-09-29T11:46:53.264Z,2.70
2018-09-29T11:48:56.552Z,1.10
2018-09-29T11:50:58.825Z,0.82
2018-09-29T11:53:01.072Z,0.80
2018-09-29T11:55:03.374Z,0.80
2018-09-29T11:57:05.598Z,1.40
2018-09-29T11:59:07.856Z,1.45
2018-09-29T12:01:10.172Z,0.98
2018-09-29T12:03:12.403Z,1.27
2018-09-29T12:05:14.670Z,1.30
2018-09-29T12:07:17.011Z,0.90
2018-09-29T12:09:19.379Z,0.80
2018-09-29T12:11:21.618Z,0.60
2018-09-29T12:13:23.880Z,0.85
2018-09-29T12:15:26.119Z,0.70
2018-09-29T12:17:28.358Z,0.80
2018-09-29T12:19:30.656Z,0.90
2018-09-29T12:21:32.888Z,0.90
2018-09-29T12:23:35.160Z,0.93
2018-09-29T12:25:37.433Z,0.95
2018-09-29T12:27:39.684Z,1.10
2018-09-29T12:29:41.967Z,1.05
2018-09-29T12:31:44.184Z,0.70
2018-09-29T12:33:46.468Z,1.32
2018-09-29T12:35:48.715Z,0.93
2018-09-29T12:37:51.038Z,0.78
2018-09-29T12:39:53.763Z,1.07
2018-09-29T12:41:55.995Z,1.35
2018-09-29T12:43:58.225Z,1.10
2018-09-29T12:46:00.501Z,0.80
2018-09-29T12:48:02.769Z,0.98
2018-09-29T12:50:05.057Z,1.15
2018-09-29T12:52:07.298Z,0.72
2018-09-29T12:54:09.521Z,1.05
2018-09-29T12:56:11.776Z,7.60
2018-09-29T12:58:14.051Z,7.58
2018-09-29T13:00:16.297Z,5.00
2018-09-29T13:02:18.527Z,8.15
2018-09-29T13:04:20.797Z,12.85
2018-09-29T13:06:23.051Z,6.97
2018-09-29T13:08:25.285Z,4.70
2018-09-29T13:10:27.568Z,4.67
2018-09-29T13:12:29.761Z,2.60
2018-09-29T13:14:31.997Z,3.75
2018-09-29T13:16:34.269Z,2.52
2018-09-29T13:18:36.501Z,2.45
2018-09-29T13:20:38.759Z,2.87
2018-09-29T13:22:41.043Z,2.45
2018-09-29T13:24:43.295Z,2.90
2018-09-29T13:26:45.576Z,0.93
2018-09-29T13:28:47.849Z,3.47
2018-09-29T13:30:50.088Z,1.65
2018-09-29T13:32:52.343Z,1.40
2018-09-29T13:34:54.639Z,1.07
2018-09-29T13:36:56.944Z,0.75
2018-09-29T13:38:59.307Z,23.55
2018-09-29T13:41:01.556Z,10.32
2018-09-29T13:43:03.811Z,4.40
2018-09-29T13:45:06.094Z,8.35
2018-09-29T13:47:08.350Z,7.25
2018-09-29T13:49:10.602Z,31.23
2018-09-29T13:51:12.909Z,11.83
2018-09-29T13:53:15.206Z,11.05
2018-09-29T13:55:17.457Z,14.40
2018-09-29T13:57:19.700Z,4.40
2018-09-29T13:59:21.998Z,5.42
2018-09-29T14:01:24.233Z,8.28
2018-09-29T14:03:26.459Z,3.58
2018-09-29T14:05:28.739Z,2.65
2018-09-29T14:07:31.015Z,1.05
2018-09-29T14:09:33.257Z,0.80
2018-09-29T14:11:35.528Z,1.75
2018-09-29T14:13:37.779Z,2.17
2018-09-29T14:15:40.035Z,1.40
2018-09-29T14:17:42.299Z,1.20
2018-09-29T14:19:44.554Z,0.82
2018-09-29T14:21:46.777Z,0.70
2018-09-29T14:23:49.036Z,1.00
2018-09-29T14:25:51.339Z,23.32
2018-09-29T14:27:53.584Z,7.17
2018-09-29T14:29:55.859Z,8.30
2018-09-29T14:31:58.116Z,11.43
2018-09-29T14:34:00.399Z,3.50
2018-09-29T14:36:02.690Z,1.82
2018-09-29T14:38:04.953Z,1.42
2018-09-29T14:40:07.239Z,1.90
2018-09-29T14:42:09.475Z,1.40
2018-09-29T14:44:11.709Z,1.30
2018-09-29T14:46:14.003Z,1.02
2018-09-29T14:48:16.240Z,1.50
2018-09-29T14:50:18.557Z,1.30
2018-09-29T14:52:20.867Z,0.68
2018-09-29T14:54:23.045Z,3.45
2018-09-29T14:56:25.323Z,79.50
2018-09-29T14:58:27.580Z,49.00
2018-09-29T15:00:29.841Z,27.42
2018-09-29T15:02:32.124Z,8.88
2018-09-29T15:04:34.371Z,17.23
2018-09-29T15:06:36.620Z,20.62
2018-09-29T15:08:38.915Z,22.00
2018-09-29T15:10:41.175Z,20.97
2018-09-29T15:12:43.455Z,21.35
2018-09-29T15:14:45.731Z,18.37
2018-09-29T15:16:48.022Z,15.25
2018-09-29T15:18:50.282Z,16.10
2018-09-29T15:20:52.575Z,16.55
2018-09-29T15:22:54.812Z,14.53
2018-09-29T15:24:57.059Z,15.68
2018-09-29T15:26:59.342Z,13.83
2018-09-29T15:29:01.618Z,14.38
2018-09-29T15:31:03.930Z,13.65
2018-09-29T15:33:06.245Z,12.28
2018-09-29T15:35:08.484Z,11.38
2018-09-29T15:37:10.831Z,10.68
2018-09-29T15:39:13.041Z,140.25
2018-09-29T15:41:15.326Z,148.45
2018-09-29T15:43:17.594Z,60.85
2018-09-29T15:45:19.821Z,36.48
2018-09-29T15:47:22.097Z,25.97
2018-09-29T15:49:24.338Z,8.10
2018-09-29T15:51:26.575Z,7.50
2018-09-29T15:53:28.853Z,211.00
2018-09-29T15:55:31.144Z,165.05
2018-09-29T15:57:33.384Z,40.10
2018-09-29T15:59:35.639Z,14.63
2018-09-29T16:01:37.878Z,5.92
2018-09-29T16:03:40.140Z,5.33
2018-09-29T16:05:42.414Z,2.33
2018-09-29T16:07:44.649Z,1.82
2018-09-29T16:09:47.010Z,1.55
2018-09-29T16:11:49.245Z,1.85
2018-09-29T16:13:51.531Z,1.40
2018-09-29T16:15:53.832Z,1.42
2018-09-29T16:17:56.094Z,1.90
2018-09-29T16:19:58.340Z,1.10
2018-09-29T16:22:00.602Z,0.77
2018-09-29T16:24:02.835Z,1.20
2018-09-29T16:26:05.111Z,1.40
2018-09-29T16:28:07.381Z,1.00
2018-09-29T16:30:09.626Z,1.02
2018-09-29T16:32:11.898Z,62.40
2018-09-29T16:34:14.158Z,38.65
2018-09-29T16:36:16.429Z,74.50
2018-09-29T16:38:18.699Z,183.27
2018-09-29T16:40:20.994Z,105.35
2018-09-29T16:42:23.243Z,143.40
2018-09-29T16:44:25.508Z,189.87
2018-09-29T16:46:27.808Z,186.45
2018-09-29T16:48:30.084Z,156.90
2018-09-29T16:50:32.334Z,160.43
2018-09-29T16:52:34.606Z,173.13
2018-09-29T16:54:36.904Z,201.90
2018-09-29T16:56:39.160Z,238.82
2018-09-29T16:58:41.418Z,244.80
2018-09-29T17:00:43.847Z,279.77
2018-09-29T17:02:46.091Z,275.07
2018-09-29T17:04:48.921Z,276.25
2018-09-29T17:06:51.580Z,255.65
2018-09-29T17:08:53.847Z,256.77
2018-09-29T17:10:56.131Z,252.45
2018-09-29T17:12:58.386Z,282.55
2018-09-29T17:15:00.631Z,163.65
2018-09-29T17:17:02.923Z,193.60
2018-09-29T17:19:05.234Z,222.90
2018-09-29T17:21:07.501Z,252.50
2018-09-29T17:23:09.783Z,240.90
2018-09-29T17:25:12.092Z,238.45
2018-09-29T17:27:14.377Z,231.15
2018-09-29T17:29:16.625Z,218.88
2018-09-29T17:31:18.915Z,488.98
2018-09-29T17:33:21.166Z,312.55
2018-09-29T17:35:23.523Z,285.25
2018-09-29T17:37:25.810Z,314.50
2018-09-29T17:39:28.084Z,344.35
2018-09-29T17:41:30.385Z,355.98
2018-09-29T17:43:32.660Z,388.65
2018-09-29T17:45:34.997Z,370.00
2018-09-29T17:47:37.209Z,388.12
2018-09-29T17:49:39.450Z,490.62
2018-09-29T17:51:41.728Z,396.20
2018-09-29T17:53:44.012Z,405.80
2018-09-29T17:55:46.309Z,455.55
2018-09-29T17:57:48.574Z,458.35
2018-09-29T17:59:50.880Z,464.50
2018-09-29T18:01:53.121Z,455.77
2018-09-29T18:03:55.408Z,452.80
2018-09-29T18:05:57.691Z,435.60
2018-09-29T18:07:59.942Z,429.68
2018-09-29T18:10:02.239Z,424.30
2018-09-29T18:12:04.478Z,433.15
2018-09-29T18:14:06.757Z,425.60
2018-09-29T18:16:09.029Z,424.80
2018-09-29T18:18:11.291Z,437.52
2018-09-29T18:20:13.609Z,417.83
2018-09-29T18:22:15.902Z,411.30
2018-09-29T18:24:18.175Z,416.77
2018-09-29T18:26:20.469Z,403.35
2018-09-29T18:28:22.771Z,402.40
2018-09-29T18:30:25.087Z,382.17
2018-09-29T18:32:27.333Z,363.55
2018-09-29T18:34:29.591Z,369.45
2018-09-29T18:36:31.896Z,347.48
2018-09-29T18:38:34.161Z,325.10
2018-09-29T18:40:36.413Z,321.82
2018-09-29T18:42:38.719Z,325.75
2018-09-29T18:44:41.012Z,302.27
2018-09-29T18:46:43.276Z,288.82
2018-09-29T18:48:45.591Z,288.10
2018-09-29T18:50:47.752Z,307.25
2018-09-29T18:52:50.061Z,294.32
2018-09-29T18:54:52.310Z,298.13
2018-09-29T18:56:54.593Z,293.35
2018-09-29T18:58:56.857Z,287.48
2018-09-29T19:00:59.091Z,322.67
2018-09-29T19:03:01.388Z,308.15
2018-09-29T19:05:03.685Z,309.67
2018-09-29T19:07:05.929Z,324.55
2018-09-29T19:09:08.168Z,315.10
2018-09-29T19:11:10.481Z,363.52
2018-09-29T19:13:12.759Z,334.07
2018-09-29T19:15:15.032Z,324.50
2018-09-29T19:17:17.281Z,337.25
2018-09-29T19:19:19.572Z,362.25
2018-09-29T19:21:21.875Z,413.68
2018-09-29T19:23:24.172Z,379.10
2018-09-29T19:25:26.470Z,387.02
2018-09-29T19:27:28.794Z,402.85
2018-09-29T19:29:31.130Z,411.05
2018-09-29T19:31:33.376Z,400.42
2018-09-29T19:33:35.664Z,396.75
2018-09-29T19:35:37.928Z,391.17
2018-09-29T19:37:40.228Z,378.95
2018-09-29T19:39:42.532Z,465.15
2018-09-29T19:41:45.158Z,81.20
2018-09-29T19:43:47.465Z,35.83
2018-09-29T19:45:49.857Z,128.07
2018-09-29T19:47:52.017Z,100.50
2018-09-29T19:49:54.245Z,152.05
2018-09-29T19:51:56.552Z,158.27
2018-09-29T19:53:58.772Z,160.32
2018-09-29T19:56:01.039Z,164.03
2018-09-29T19:58:03.321Z,159.43
2018-09-29T20:00:05.569Z,148.93
2018-09-29T20:02:07.873Z,120.33
2018-09-29T20:04:10.123Z,140.43
2018-09-29T20:06:12.424Z,163.10
2018-09-29T20:08:14.731Z,999.90
2018-09-29T20:10:17.038Z,999.90
2018-09-29T20:12:19.258Z,999.90
2018-09-29T20:14:21.585Z,322.07
2018-09-29T20:16:23.858Z,351.20
2018-09-29T20:18:26.172Z,357.90
2018-09-29T20:20:28.470Z,342.93
2018-09-29T20:22:30.753Z,330.30
2018-09-29T20:24:33.006Z,316.80
2018-09-29T20:26:35.299Z,313.00
2018-09-29T20:28:37.537Z,315.15
2018-09-29T20:30:39.886Z,303.48
2018-09-29T20:32:42.386Z,301.18
2018-09-29T20:34:44.637Z,288.48
2018-09-29T20:36:46.943Z,267.77
2018-09-29T20:38:49.201Z,345.60
2018-09-29T20:40:51.443Z,393.05
2018-09-29T20:42:53.745Z,445.10
2018-09-29T20:44:56.030Z,452.37
2018-09-29T20:46:58.291Z,438.33
2018-09-29T20:49:00.565Z,552.75
2018-09-29T20:51:02.828Z,494.62
2018-09-29T20:53:05.122Z,523.97
2018-09-29T20:55:07.381Z,542.75
2018-09-29T20:57:09.638Z,573.73
2018-09-29T20:59:11.915Z,536.33
2018-09-29T21:01:14.181Z,560.80
2018-09-29T21:03:16.476Z,532.02
2018-09-29T21:05:18.749Z,528.88
2018-09-29T21:07:20.997Z,499.40
2018-09-29T21:09:23.292Z,494.45
2018-09-29T21:11:25.560Z,485.20
2018-09-29T21:13:27.947Z,508.48
2018-09-29T21:15:30.095Z,478.52
2018-09-29T21:17:32.378Z,484.20
2018-09-29T21:19:34.636Z,473.65
2018-09-29T21:21:36.936Z,484.25
2018-09-29T21:23:39.259Z,478.68
2018-09-29T21:25:41.508Z,539.27
2018-09-29T21:27:43.764Z,563.05
2018-09-29T21:29:46.041Z,560.08
2018-09-29T21:31:48.328Z,558.62
2018-09-29T21:33:50.586Z,577.92
2018-09-29T21:35:52.870Z,575.67
2018-09-29T21:37:55.174Z,565.83
2018-09-29T21:39:57.420Z,562.23
2018-09-29T21:42:00.394Z,537.70
2018-09-29T21:44:02.790Z,569.65
2018-09-29T21:46:05.057Z,544.85
2018-09-29T21:48:07.307Z,547.90
2018-09-29T21:50:09.638Z,571.22
2018-09-29T21:52:11.935Z,584.87
2018-09-29T21:54:14.186Z,612.70
2018-09-29T21:56:16.460Z,617.95
2018-09-29T21:58:18.757Z,641.12
2018-09-29T22:00:21.058Z,609.17
2018-09-29T22:02:23.309Z,609.00
2018-09-29T22:04:25.634Z,603.10
2018-09-29T22:06:27.917Z,586.45
2018-09-29T22:08:30.208Z,606.33
2018-09-29T22:10:32.488Z,572.90
2018-09-29T22:12:34.799Z,568.02
2018-09-29T22:14:37.116Z,587.15
2018-09-29T22:16:39.423Z,584.77
2018-09-29T22:18:41.692Z,621.30
2018-09-29T22:20:43.932Z,637.80
2018-09-29T22:22:46.242Z,622.08
2018-09-29T22:24:48.485Z,615.28
2018-09-29T22:26:50.793Z,611.47
2018-09-29T22:28:53.068Z,604.02
2018-09-29T22:30:55.356Z,611.70
2018-09-29T22:32:57.595Z,641.65
2018-09-29T22:34:59.876Z,640.02
2018-09-29T22:37:02.135Z,632.67
2018-09-29T22:39:04.378Z,654.45
2018-09-29T22:41:06.661Z,652.45
2018-09-29T22:43:08.916Z,644.90
2018-09-29T22:45:12.038Z,645.15
2018-09-29T22:47:14.300Z,668.33
2018-09-29T22:49:16.586Z,673.70
2018-09-29T22:51:18.828Z,683.30
2018-09-29T22:53:21.108Z,703.92
2018-09-29T22:55:23.399Z,715.17
2018-09-29T22:57:25.677Z,716.65
2018-09-29T22:59:27.894Z,699.45
2018-09-29T23:01:30.196Z,701.95
2018-09-29T23:03:32.443Z,713.17
2018-09-29T23:05:34.749Z,725.55
2018-09-29T23:07:36.982Z,744.08
2018-09-29T23:09:39.261Z,730.92
2018-09-29T23:11:41.769Z,742.58
2018-09-29T23:13:44.054Z,749.55
2018-09-29T23:15:46.328Z,740.52
2018-09-29T23:17:48.629Z,729.85
2018-09-29T23:19:50.923Z,741.58
2018-09-29T23:21:53.193Z,745.67
2018-09-29T23:23:55.467Z,748.42
2018-09-29T23:25:57.799Z,755.13
2018-09-29T23:28:00.112Z,765.05
2018-09-29T23:30:02.385Z,793.15
2018-09-29T23:32:04.663Z,801.58
2018-09-29T23:34:06.906Z,794.97
2018-09-29T23:36:09.200Z,794.85
2018-09-29T23:38:11.460Z,793.65
2018-09-29T23:40:13.709Z,785.20
2018-09-29T23:42:15.988Z,794.97
2018-09-29T23:44:18.245Z,829.90
2018-09-29T23:46:20.549Z,835.25
2018-09-29T23:48:22.843Z,833.55
2018-09-29T23:50:25.101Z,809.45
2018-09-29T23:52:27.335Z,820.92
2018-09-29T23:54:29.708Z,803.60
2018-09-29T23:56:31.927Z,826.62
2018-09-29T23:58:34.215Z,819.97
